Weather at Dollar airstrip

Public forecast

Using degrees Celsius for public forecast. Weather courtesy of forecast.io.

Closest aviation weather report (METAR) to Dollar airstrip

Closest report is Edinburgh Airport, 16.3 nm (30.1 km) SE.

2024/05/24 20:20 (retrieved 19 minutes ago)

EGPH 242020Z VRB02KT 6000 FEW001 SCT007 BKN011 13/12 Q1017

Closest aviation forecast (TAF) to Dollar airstrip

Closest forecast is Edinburgh Airport, 16.3 nm (30.1 km) SE.

2024/05/24 20:06 Ammendment (retrieved 33 minutes ago)

TAF AMD EGPH 242000Z 2420/2518 VRB03KT 9999 SCT006 BKN015 TEMPO 2420/2424 4000 BR BKN014 PROB30 TEMPO 2420/2423 BKN008 PROB30 TEMPO 2500/2507 8000 BECMG 2506/2509 05010KT BECMG 2513/2516 12010KT